Portada
METAR-TAF:

METAR-TAF

Aeropuertos :

Aeropuerto Civil de Amán

Amán, Jordania

latitud: 31-59N, longitud: 035-59E, altitud: 767 m

Observación

El informe se hizo hace 59 minutos, a las 19:00 UTC
Viento 4 kt del oeste-noroeste
Temperatura 25°C
Humedad 54%
Presión 1013 hPa
Visibilidad: 5000 m
calima

METAR: OJAM 151900Z 30004KT 5000 HZ NSC 25/15 Q1013 NOSIG

Hora: 22:59 (19:59 UTC)

Pronóstico

El informe se hizo hace 3 horas y 6 minutos, a las 16:53 UTC
Pronóstico válido del 15 a las 18 UTC al 17 a las 00 UTC
Viento 10 kt del oeste-noroeste
Visibilidad: 5000 m
calima
Evolucionando progresivamente
del 15 a las 20 UTC al 15 a las 22 UTC
Viento 2 kt con dirección variable
Visibilidad: 6000 m

TAF: OJAM 151653Z 1518/1700 30010KT 5000 HZ NSC BECMG 1520/1522 VRB02KT 6000

Observaciones y pronósticos meteorológicos de más de 4000 aeropuertos (mensajes METAR y TAF).

Los puntos amarillos y rojos representan las estaciones disponibles.

Ponga el ratón en el punto deseado para ver el nombre de la estación.

Haga clic para ver las observaciones y los pronósticos meteorológicos.

Para cambiar el mapa : haga clic en los botones verdes con una cruz de color negro para hacer un zoom, en el botón verde con un guión para alejar o en las flechas verdes para mapas adyacentes.


METAR-TAF: